sensor_id;sensor_type;location;lat;lon;timestamp;P1;durP1;ratioP1;P2;durP2;ratioP2
21334;SDS011;10826;52.536;13.432;2022-08-19T00:01:42;11.10;;;10.20;;
21334;SDS011;10826;52.536;13.432;2022-08-19T00:04:11;11.47;;;10.60;;
21334;SDS011;10826;52.536;13.432;2022-08-19T00:06:40;11.00;;;10.00;;
21334;SDS011;10826;52.536;13.432;2022-08-19T00:09:12;11.93;;;10.90;;
21334;SDS011;10826;52.536;13.432;2022-08-19T00:11:44;11.90;;;11.00;;
21334;SDS011;10826;52.536;13.432;2022-08-19T00:14:12;12.33;;;11.07;;
21334;SDS011;10826;52.536;13.432;2022-08-19T00:16:42;11.43;;;10.43;;
21334;SDS011;10826;52.536;13.432;2022-08-19T00:19:11;12.17;;;11.07;;
21334;SDS011;10826;52.536;13.432;2022-08-19T00:21:37;12.30;;;11.27;;
21334;SDS011;10826;52.536;13.432;2022-08-19T00:24:05;11.40;;;10.60;;
21334;SDS011;10826;52.536;13.432;2022-08-19T00:26:37;12.53;;;11.53;;
21334;SDS011;10826;52.536;13.432;2022-08-19T00:29:04;12.97;;;12.00;;
21334;SDS011;10826;52.536;13.432;2022-08-19T00:31:33;13.70;;;12.53;;
21334;SDS011;10826;52.536;13.432;2022-08-19T00:34:01;13.47;;;12.17;;
21334;SDS011;10826;52.536;13.432;2022-08-19T00:36:28;13.93;;;12.80;;
21334;SDS011;10826;52.536;13.432;2022-08-19T00:38:54;13.97;;;12.87;;
21334;SDS011;10826;52.536;13.432;2022-08-19T00:41:21;14.17;;;12.80;;
21334;SDS011;10826;52.536;13.432;2022-08-19T00:44:00;15.33;;;13.83;;
21334;SDS011;10826;52.536;13.432;2022-08-19T00:46:38;14.53;;;13.23;;
21334;SDS011;10826;52.536;13.432;2022-08-19T00:49:10;13.10;;;12.00;;
21334;SDS011;10826;52.536;13.432;2022-08-19T00:51:45;14.07;;;12.80;;
21334;SDS011;10826;52.536;13.432;2022-08-19T00:54:18;13.53;;;12.40;;
21334;SDS011;10826;52.536;13.432;2022-08-19T00:56:46;13.67;;;12.47;;
21334;SDS011;10826;52.536;13.432;2022-08-19T00:59:15;12.47;;;11.30;;
21334;SDS011;10826;52.536;13.432;2022-08-19T01:01:44;14.37;;;13.00;;
21334;SDS011;10826;52.536;13.432;2022-08-19T01:04:12;14.00;;;12.80;;
21334;SDS011;10826;52.536;13.432;2022-08-19T01:06:39;13.93;;;12.80;;
21334;SDS011;10826;52.536;13.432;2022-08-19T01:09:06;15.10;;;13.60;;
21334;SDS011;10826;52.536;13.432;2022-08-19T01:11:34;14.57;;;13.17;;
21334;SDS011;10826;52.536;13.432;2022-08-19T01:14:05;15.63;;;14.00;;
21334;SDS011;10826;52.536;13.432;2022-08-19T01:16:33;16.37;;;14.87;;
21334;SDS011;10826;52.536;13.432;2022-08-19T01:19:02;14.73;;;13.53;;
21334;SDS011;10826;52.536;13.432;2022-08-19T01:25:07;15.67;;;14.40;;
21334;SDS011;10826;52.536;13.432;2022-08-19T01:27:37;17.60;;;15.87;;
21334;SDS011;10826;52.536;13.432;2022-08-19T01:30:07;17.33;;;15.73;;
21334;SDS011;10826;52.536;13.432;2022-08-19T01:32:35;17.40;;;15.63;;
21334;SDS011;10826;52.536;13.432;2022-08-19T01:35:02;16.33;;;14.80;;
21334;SDS011;10826;52.536;13.432;2022-08-19T01:37:30;16.20;;;14.80;;
21334;SDS011;10826;52.536;13.432;2022-08-19T01:40:07;17.20;;;15.20;;
21334;SDS011;10826;52.536;13.432;2022-08-19T01:42:34;17.03;;;15.40;;
21334;SDS011;10826;52.536;13.432;2022-08-19T01:45:00;17.47;;;15.70;;
21334;SDS011;10826;52.536;13.432;2022-08-19T01:47:26;21.57;;;16.90;;
21334;SDS011;10826;52.536;13.432;2022-08-19T01:49:52;18.53;;;16.53;;
21334;SDS011;10826;52.536;13.432;2022-08-19T01:52:18;18.40;;;16.63;;
21334;SDS011;10826;52.536;13.432;2022-08-19T01:54:44;18.70;;;16.90;;
21334;SDS011;10826;52.536;13.432;2022-08-19T01:57:11;19.27;;;17.47;;
21334;SDS011;10826;52.536;13.432;2022-08-19T01:59:40;27.03;;;19.17;;
21334;SDS011;10826;52.536;13.432;2022-08-19T02:02:09;29.27;;;19.80;;
21334;SDS011;10826;52.536;13.432;2022-08-19T02:04:36;23.73;;;19.23;;
21334;SDS011;10826;52.536;13.432;2022-08-19T02:07:06;20.57;;;18.47;;
21334;SDS011;10826;52.536;13.432;2022-08-19T02:09:33;20.13;;;17.07;;
21334;SDS011;10826;52.536;13.432;2022-08-19T02:12:00;19.20;;;17.30;;
21334;SDS011;10826;52.536;13.432;2022-08-19T02:14:26;19.57;;;17.70;;
21334;SDS011;10826;52.536;13.432;2022-08-19T02:16:52;24.90;;;18.13;;
21334;SDS011;10826;52.536;13.432;2022-08-19T02:19:18;24.40;;;18.70;;
21334;SDS011;10826;52.536;13.432;2022-08-19T02:21:44;22.43;;;19.57;;
21334;SDS011;10826;52.536;13.432;2022-08-19T02:24:11;20.47;;;18.37;;
21334;SDS011;10826;52.536;13.432;2022-08-19T02:26:37;19.27;;;17.27;;
21334;SDS011;10826;52.536;13.432;2022-08-19T02:29:06;19.67;;;17.67;;
21334;SDS011;10826;52.536;13.432;2022-08-19T02:31:32;17.80;;;16.00;;
21334;SDS011;10826;52.536;13.432;2022-08-19T02:33:58;17.00;;;15.27;;
21334;SDS011;10826;52.536;13.432;2022-08-19T02:36:28;16.53;;;15.23;;
21334;SDS011;10826;52.536;13.432;2022-08-19T02:38:55;17.53;;;15.77;;
21334;SDS011;10826;52.536;13.432;2022-08-19T02:41:25;19.97;;;17.10;;
21334;SDS011;10826;52.536;13.432;2022-08-19T02:43:56;18.40;;;16.00;;
21334;SDS011;10826;52.536;13.432;2022-08-19T02:46:28;17.33;;;15.77;;
21334;SDS011;10826;52.536;13.432;2022-08-19T02:48:59;17.33;;;15.67;;
21334;SDS011;10826;52.536;13.432;2022-08-19T02:51:33;16.10;;;14.70;;
21334;SDS011;10826;52.536;13.432;2022-08-19T02:54:04;16.37;;;14.77;;
21334;SDS011;10826;52.536;13.432;2022-08-19T02:56:34;15.13;;;13.93;;
21334;SDS011;10826;52.536;13.432;2022-08-19T02:59:02;20.03;;;14.90;;
21334;SDS011;10826;52.536;13.432;2022-08-19T03:01:33;15.27;;;13.97;;
21334;SDS011;10826;52.536;13.432;2022-08-19T03:04:00;15.23;;;13.80;;
21334;SDS011;10826;52.536;13.432;2022-08-19T03:06:30;14.60;;;13.30;;
21334;SDS011;10826;52.536;13.432;2022-08-19T03:08:57;17.23;;;15.63;;
21334;SDS011;10826;52.536;13.432;2022-08-19T03:11:25;16.00;;;14.23;;
21334;SDS011;10826;52.536;13.432;2022-08-19T03:13:55;14.23;;;13.03;;
21334;SDS011;10826;52.536;13.432;2022-08-19T03:16:23;14.90;;;13.30;;
21334;SDS011;10826;52.536;13.432;2022-08-19T03:18:52;13.40;;;12.10;;
21334;SDS011;10826;52.536;13.432;2022-08-19T03:21:25;15.07;;;13.57;;
21334;SDS011;10826;52.536;13.432;2022-08-19T03:23:59;14.57;;;13.17;;
21334;SDS011;10826;52.536;13.432;2022-08-19T03:26:34;13.53;;;12.50;;
21334;SDS011;10826;52.536;13.432;2022-08-19T03:29:06;13.10;;;11.90;;
21334;SDS011;10826;52.536;13.432;2022-08-19T03:31:32;13.87;;;12.63;;
21334;SDS011;10826;52.536;13.432;2022-08-19T03:33:58;13.97;;;12.63;;
21334;SDS011;10826;52.536;13.432;2022-08-19T03:36:25;14.60;;;13.20;;
21334;SDS011;10826;52.536;13.432;2022-08-19T03:38:53;14.87;;;13.03;;
21334;SDS011;10826;52.536;13.432;2022-08-19T03:41:23;14.27;;;13.00;;
21334;SDS011;10826;52.536;13.432;2022-08-19T03:43:52;14.13;;;13.00;;
21334;SDS011;10826;52.536;13.432;2022-08-19T03:46:20;14.33;;;12.93;;
21334;SDS011;10826;52.536;13.432;2022-08-19T03:48:56;14.70;;;13.30;;
21334;SDS011;10826;52.536;13.432;2022-08-19T03:51:32;14.53;;;13.23;;
21334;SDS011;10826;52.536;13.432;2022-08-19T03:54:02;12.83;;;11.70;;
21334;SDS011;10826;52.536;13.432;2022-08-19T03:56:33;14.00;;;12.53;;
21334;SDS011;10826;52.536;13.432;2022-08-19T03:59:02;13.77;;;12.40;;
21334;SDS011;10826;52.536;13.432;2022-08-19T04:01:30;14.23;;;13.13;;
21334;SDS011;10826;52.536;13.432;2022-08-19T04:03:57;14.07;;;12.87;;
21334;SDS011;10826;52.536;13.432;2022-08-19T04:06:26;14.77;;;13.20;;
21334;SDS011;10826;52.536;13.432;2022-08-19T04:08:57;13.10;;;12.10;;
21334;SDS011;10826;52.536;13.432;2022-08-19T04:11:30;13.57;;;12.23;;
21334;SDS011;10826;52.536;13.432;2022-08-19T04:14:04;13.50;;;12.30;;
21334;SDS011;10826;52.536;13.432;2022-08-19T04:16:30;13.33;;;12.13;;
21334;SDS011;10826;52.536;13.432;2022-08-19T04:19:00;13.17;;;12.03;;
21334;SDS011;10826;52.536;13.432;2022-08-19T04:21:31;13.40;;;12.30;;
21334;SDS011;10826;52.536;13.432;2022-08-19T04:23:59;13.30;;;12.27;;
21334;SDS011;10826;52.536;13.432;2022-08-19T04:26:28;13.73;;;12.57;;
21334;SDS011;10826;52.536;13.432;2022-08-19T04:29:01;14.03;;;12.93;;
21334;SDS011;10826;52.536;13.432;2022-08-19T04:31:32;14.97;;;12.90;;
21334;SDS011;10826;52.536;13.432;2022-08-19T04:34:05;13.17;;;12.00;;
21334;SDS011;10826;52.536;13.432;2022-08-19T04:36:36;15.53;;;14.20;;
21334;SDS011;10826;52.536;13.432;2022-08-19T04:39:16;14.30;;;13.10;;
21334;SDS011;10826;52.536;13.432;2022-08-19T04:42:09;15.23;;;13.90;;
21334;SDS011;10826;52.536;13.432;2022-08-19T04:44:54;14.50;;;13.30;;
21334;SDS011;10826;52.536;13.432;2022-08-19T04:47:20;15.27;;;13.90;;
21334;SDS011;10826;52.536;13.432;2022-08-19T04:49:46;15.53;;;14.20;;
21334;SDS011;10826;52.536;13.432;2022-08-19T04:52:13;14.90;;;13.40;;
21334;SDS011;10826;52.536;13.432;2022-08-19T04:54:39;15.70;;;14.07;;
21334;SDS011;10826;52.536;13.432;2022-08-19T04:57:08;13.43;;;12.30;;
21334;SDS011;10826;52.536;13.432;2022-08-19T04:59:35;14.57;;;13.27;;
21334;SDS011;10826;52.536;13.432;2022-08-19T05:02:04;14.57;;;13.07;;
21334;SDS011;10826;52.536;13.432;2022-08-19T05:04:34;14.07;;;12.77;;
21334;SDS011;10826;52.536;13.432;2022-08-19T05:07:03;17.90;;;13.73;;
21334;SDS011;10826;52.536;13.432;2022-08-19T05:09:29;14.00;;;12.77;;
21334;SDS011;10826;52.536;13.432;2022-08-19T05:11:56;14.13;;;12.83;;
21334;SDS011;10826;52.536;13.432;2022-08-19T05:14:22;14.57;;;12.83;;
21334;SDS011;10826;52.536;13.432;2022-08-19T05:16:48;14.27;;;13.07;;
21334;SDS011;10826;52.536;13.432;2022-08-19T05:19:14;13.40;;;12.30;;
21334;SDS011;10826;52.536;13.432;2022-08-19T05:21:59;14.07;;;12.67;;
21334;SDS011;10826;52.536;13.432;2022-08-19T05:24:44;14.57;;;12.70;;
21334;SDS011;10826;52.536;13.432;2022-08-19T05:27:11;13.97;;;12.47;;
21334;SDS011;10826;52.536;13.432;2022-08-19T05:29:38;14.80;;;13.33;;
21334;SDS011;10826;52.536;13.432;2022-08-19T05:32:04;15.23;;;13.07;;
21334;SDS011;10826;52.536;13.432;2022-08-19T05:34:34;13.40;;;12.27;;
21334;SDS011;10826;52.536;13.432;2022-08-19T05:37:03;14.13;;;12.73;;
21334;SDS011;10826;52.536;13.432;2022-08-19T05:39:33;13.77;;;12.57;;
21334;SDS011;10826;52.536;13.432;2022-08-19T05:42:04;14.27;;;12.83;;
21334;SDS011;10826;52.536;13.432;2022-08-19T05:44:38;13.23;;;12.23;;
21334;SDS011;10826;52.536;13.432;2022-08-19T05:47:11;12.70;;;11.70;;
21334;SDS011;10826;52.536;13.432;2022-08-19T05:49:40;12.70;;;11.47;;
21334;SDS011;10826;52.536;13.432;2022-08-19T05:52:09;12.90;;;11.70;;
21334;SDS011;10826;52.536;13.432;2022-08-19T05:54:38;14.77;;;13.17;;
21334;SDS011;10826;52.536;13.432;2022-08-19T05:57:06;14.17;;;12.57;;
21334;SDS011;10826;52.536;13.432;2022-08-19T05:59:33;13.97;;;12.77;;
21334;SDS011;10826;52.536;13.432;2022-08-19T06:02:03;14.03;;;12.63;;
21334;SDS011;10826;52.536;13.432;2022-08-19T06:04:31;13.07;;;12.00;;
21334;SDS011;10826;52.536;13.432;2022-08-19T06:06:57;14.07;;;12.53;;
21334;SDS011;10826;52.536;13.432;2022-08-19T06:09:23;13.53;;;12.43;;
21334;SDS011;10826;52.536;13.432;2022-08-19T06:11:54;13.57;;;12.37;;
21334;SDS011;10826;52.536;13.432;2022-08-19T06:14:27;12.43;;;11.50;;
21334;SDS011;10826;52.536;13.432;2022-08-19T06:16:57;13.00;;;11.90;;
21334;SDS011;10826;52.536;13.432;2022-08-19T06:19:25;15.03;;;12.37;;
21334;SDS011;10826;52.536;13.432;2022-08-19T06:21:51;14.13;;;12.73;;
21334;SDS011;10826;52.536;13.432;2022-08-19T06:24:19;14.43;;;13.00;;
21334;SDS011;10826;52.536;13.432;2022-08-19T06:26:49;25.83;;;20.33;;
21334;SDS011;10826;52.536;13.432;2022-08-19T06:29:18;19.97;;;15.00;;
21334;SDS011;10826;52.536;13.432;2022-08-19T06:31:49;18.13;;;15.83;;
21334;SDS011;10826;52.536;13.432;2022-08-19T06:34:18;21.40;;;17.37;;
21334;SDS011;10826;52.536;13.432;2022-08-19T06:36:46;15.37;;;13.90;;
21334;SDS011;10826;52.536;13.432;2022-08-19T06:39:24;14.47;;;13.13;;
21334;SDS011;10826;52.536;13.432;2022-08-19T06:41:54;15.60;;;12.63;;
21334;SDS011;10826;52.536;13.432;2022-08-19T06:44:24;14.17;;;12.83;;
21334;SDS011;10826;52.536;13.432;2022-08-19T06:46:54;13.70;;;12.63;;
21334;SDS011;10826;52.536;13.432;2022-08-19T06:49:21;13.90;;;12.70;;
21334;SDS011;10826;52.536;13.432;2022-08-19T06:51:49;14.30;;;12.97;;
21334;SDS011;10826;52.536;13.432;2022-08-19T06:54:16;15.10;;;13.50;;
21334;SDS011;10826;52.536;13.432;2022-08-19T06:56:43;16.23;;;13.40;;
21334;SDS011;10826;52.536;13.432;2022-08-19T06:59:11;13.40;;;12.17;;
21334;SDS011;10826;52.536;13.432;2022-08-19T07:01:52;13.23;;;12.13;;
21334;SDS011;10826;52.536;13.432;2022-08-19T07:04:22;16.08;;;12.90;;
21334;SDS011;10826;52.536;13.432;2022-08-19T07:07:00;17.33;;;12.90;;
21334;SDS011;10826;52.536;13.432;2022-08-19T07:09:40;14.32;;;13.00;;
21334;SDS011;10826;52.536;13.432;2022-08-19T07:12:10;15.90;;;12.75;;
21334;SDS011;10826;52.536;13.432;2022-08-19T07:14:40;15.07;;;13.60;;
21334;SDS011;10826;52.536;13.432;2022-08-19T07:17:11;14.13;;;12.88;;
21334;SDS011;10826;52.536;13.432;2022-08-19T07:19:38;13.82;;;12.63;;
21334;SDS011;10826;52.536;13.432;2022-08-19T07:22:05;14.82;;;13.25;;
21334;SDS011;10826;52.536;13.432;2022-08-19T07:24:33;14.00;;;12.80;;
21334;SDS011;10826;52.536;13.432;2022-08-19T07:27:02;13.88;;;12.52;;
21334;SDS011;10826;52.536;13.432;2022-08-19T07:29:31;14.00;;;12.77;;
21334;SDS011;10826;52.536;13.432;2022-08-19T07:32:00;14.30;;;12.88;;
21334;SDS011;10826;52.536;13.432;2022-08-19T07:34:28;14.25;;;12.95;;
21334;SDS011;10826;52.536;13.432;2022-08-19T07:36:56;14.25;;;13.07;;
21334;SDS011;10826;52.536;13.432;2022-08-19T07:39:26;14.88;;;13.25;;
21334;SDS011;10826;52.536;13.432;2022-08-19T07:41:56;17.80;;;13.82;;
21334;SDS011;10826;52.536;13.432;2022-08-19T07:44:26;16.20;;;14.02;;
21334;SDS011;10826;52.536;13.432;2022-08-19T07:46:53;14.80;;;13.43;;
21334;SDS011;10826;52.536;13.432;2022-08-19T07:49:22;15.20;;;13.57;;
21334;SDS011;10826;52.536;13.432;2022-08-19T07:51:50;15.13;;;13.63;;
21334;SDS011;10826;52.536;13.432;2022-08-19T07:54:21;15.85;;;14.55;;
21334;SDS011;10826;52.536;13.432;2022-08-19T07:56:52;15.50;;;13.90;;
21334;SDS011;10826;52.536;13.432;2022-08-19T07:59:20;14.85;;;13.50;;
21334;SDS011;10826;52.536;13.432;2022-08-19T08:01:47;15.07;;;13.82;;
21334;SDS011;10826;52.536;13.432;2022-08-19T08:04:15;13.57;;;12.48;;
21334;SDS011;10826;52.536;13.432;2022-08-19T08:07:01;15.50;;;14.20;;
21334;SDS011;10826;52.536;13.432;2022-08-19T08:09:48;14.65;;;13.45;;
21334;SDS011;10826;52.536;13.432;2022-08-19T08:12:16;15.27;;;14.07;;
21334;SDS011;10826;52.536;13.432;2022-08-19T08:14:53;17.33;;;14.75;;
21334;SDS011;10826;52.536;13.432;2022-08-19T08:17:25;16.02;;;14.48;;
21334;SDS011;10826;52.536;13.432;2022-08-19T08:19:54;16.55;;;15.10;;
21334;SDS011;10826;52.536;13.432;2022-08-19T08:22:21;20.38;;;15.32;;
21334;SDS011;10826;52.536;13.432;2022-08-19T08:25:14;16.08;;;14.77;;
21334;SDS011;10826;52.536;13.432;2022-08-19T08:27:45;16.60;;;15.00;;
21334;SDS011;10826;52.536;13.432;2022-08-19T08:30:19;17.13;;;15.32;;
21334;SDS011;10826;52.536;13.432;2022-08-19T08:32:50;19.27;;;15.27;;
21334;SDS011;10826;52.536;13.432;2022-08-19T08:35:18;15.02;;;13.93;;
21334;SDS011;10826;52.536;13.432;2022-08-19T08:37:48;16.63;;;15.23;;
21334;SDS011;10826;52.536;13.432;2022-08-19T08:46:06;16.27;;;14.77;;
21334;SDS011;10826;52.536;13.432;2022-08-19T08:48:44;31.63;;;16.15;;
21334;SDS011;10826;52.536;13.432;2022-08-19T08:51:32;18.25;;;16.48;;
21334;SDS011;10826;52.536;13.432;2022-08-19T08:54:08;16.38;;;14.93;;
21334;SDS011;10826;52.536;13.432;2022-08-19T08:56:38;15.68;;;14.00;;
21334;SDS011;10826;52.536;13.432;2022-08-19T08:59:29;15.10;;;13.88;;
21334;SDS011;10826;52.536;13.432;2022-08-19T09:02:01;16.40;;;14.98;;
21334;SDS011;10826;52.536;13.432;2022-08-19T09:04:27;16.27;;;14.60;;
21334;SDS011;10826;52.536;13.432;2022-08-19T09:09:50;16.17;;;14.68;;
21334;SDS011;10826;52.536;13.432;2022-08-19T09:13:12;15.75;;;14.25;;
21334;SDS011;10826;52.536;13.432;2022-08-19T09:16:12;16.17;;;14.55;;
21334;SDS011;10826;52.536;13.432;2022-08-19T09:18:50;16.25;;;14.40;;
21334;SDS011;10826;52.536;13.432;2022-08-19T09:21:19;15.68;;;14.30;;
21334;SDS011;10826;52.536;13.432;2022-08-19T09:23:50;14.93;;;13.75;;
21334;SDS011;10826;52.536;13.432;2022-08-19T09:26:18;15.07;;;13.80;;
21334;SDS011;10826;52.536;13.432;2022-08-19T09:28:49;14.95;;;13.75;;
21334;SDS011;10826;52.536;13.432;2022-08-19T09:31:21;14.70;;;13.25;;
21334;SDS011;10826;52.536;13.432;2022-08-19T09:33:50;17.92;;;13.98;;
21334;SDS011;10826;52.536;13.432;2022-08-19T09:36:18;13.85;;;12.85;;
21334;SDS011;10826;52.536;13.432;2022-08-19T09:38:47;14.27;;;12.93;;
21334;SDS011;10826;52.536;13.432;2022-08-19T09:41:14;15.00;;;13.75;;
21334;SDS011;10826;52.536;13.432;2022-08-19T09:43:47;14.55;;;13.27;;
21334;SDS011;10826;52.536;13.432;2022-08-19T09:46:17;14.48;;;13.15;;
21334;SDS011;10826;52.536;13.432;2022-08-19T09:48:45;13.57;;;12.43;;
21334;SDS011;10826;52.536;13.432;2022-08-19T09:51:17;13.20;;;12.00;;
21334;SDS011;10826;52.536;13.432;2022-08-19T09:53:51;13.23;;;12.13;;
21334;SDS011;10826;52.536;13.432;2022-08-19T09:56:19;14.00;;;12.55;;
21334;SDS011;10826;52.536;13.432;2022-08-19T09:58:47;13.98;;;12.80;;
21334;SDS011;10826;52.536;13.432;2022-08-19T10:01:23;14.68;;;13.57;;
21334;SDS011;10826;52.536;13.432;2022-08-19T10:03:53;22.38;;;11.85;;
21334;SDS011;10826;52.536;13.432;2022-08-19T10:06:22;13.77;;;12.80;;
21334;SDS011;10826;52.536;13.432;2022-08-19T10:08:51;13.75;;;12.55;;
21334;SDS011;10826;52.536;13.432;2022-08-19T10:11:18;14.38;;;13.07;;
21334;SDS011;10826;52.536;13.432;2022-08-19T10:13:45;13.15;;;12.15;;
21334;SDS011;10826;52.536;13.432;2022-08-19T10:16:13;15.85;;;13.15;;
21334;SDS011;10826;52.536;13.432;2022-08-19T10:18:45;14.40;;;13.20;;
21334;SDS011;10826;52.536;13.432;2022-08-19T10:21:15;13.98;;;12.70;;
21334;SDS011;10826;52.536;13.432;2022-08-19T10:23:48;13.70;;;12.50;;
21334;SDS011;10826;52.536;13.432;2022-08-19T10:26:19;13.98;;;12.55;;
21334;SDS011;10826;52.536;13.432;2022-08-19T10:28:49;13.73;;;12.48;;
21334;SDS011;10826;52.536;13.432;2022-08-19T10:31:16;13.68;;;12.65;;
21334;SDS011;10826;52.536;13.432;2022-08-19T10:33:47;13.52;;;12.45;;
21334;SDS011;10826;52.536;13.432;2022-08-19T10:36:14;13.60;;;12.07;;
21334;SDS011;10826;52.536;13.432;2022-08-19T10:38:45;13.40;;;12.07;;
21334;SDS011;10826;52.536;13.432;2022-08-19T10:41:16;12.73;;;11.82;;
21334;SDS011;10826;52.536;13.432;2022-08-19T10:43:49;14.15;;;12.95;;
21334;SDS011;10826;52.536;13.432;2022-08-19T10:46:20;13.88;;;12.55;;
21334;SDS011;10826;52.536;13.432;2022-08-19T10:48:48;12.85;;;11.52;;
21334;SDS011;10826;52.536;13.432;2022-08-19T10:51:14;13.40;;;12.10;;
21334;SDS011;10826;52.536;13.432;2022-08-19T10:54:00;14.23;;;12.88;;
21334;SDS011;10826;52.536;13.432;2022-08-19T10:56:27;12.05;;;11.15;;
21334;SDS011;10826;52.536;13.432;2022-08-19T10:59:13;12.65;;;11.52;;
21334;SDS011;10826;52.536;13.432;2022-08-19T11:01:40;12.65;;;11.55;;
21334;SDS011;10826;52.536;13.432;2022-08-19T11:04:09;13.30;;;12.10;;
21334;SDS011;10826;52.536;13.432;2022-08-19T11:06:36;13.20;;;11.93;;
21334;SDS011;10826;52.536;13.432;2022-08-19T11:09:03;12.07;;;11.10;;
21334;SDS011;10826;52.536;13.432;2022-08-19T11:11:31;12.25;;;11.23;;
21334;SDS011;10826;52.536;13.432;2022-08-19T11:13:57;13.27;;;11.98;;
21334;SDS011;10826;52.536;13.432;2022-08-19T11:16:24;14.27;;;12.85;;
21334;SDS011;10826;52.536;13.432;2022-08-19T11:18:53;13.70;;;12.40;;
21334;SDS011;10826;52.536;13.432;2022-08-19T11:23:53;12.90;;;11.60;;
21334;SDS011;10826;52.536;13.432;2022-08-19T11:26:22;12.65;;;11.65;;
21334;SDS011;10826;52.536;13.432;2022-08-19T11:28:49;13.10;;;11.75;;
21334;SDS011;10826;52.536;13.432;2022-08-19T11:31:20;12.77;;;11.45;;
21334;SDS011;10826;52.536;13.432;2022-08-19T11:33:50;12.60;;;11.50;;
21334;SDS011;10826;52.536;13.432;2022-08-19T11:36:18;13.05;;;11.90;;
21334;SDS011;10826;52.536;13.432;2022-08-19T11:38:46;13.00;;;11.70;;
21334;SDS011;10826;52.536;13.432;2022-08-19T11:41:16;12.75;;;11.75;;
21334;SDS011;10826;52.536;13.432;2022-08-19T11:43:45;12.70;;;11.38;;
21334;SDS011;10826;52.536;13.432;2022-08-19T11:46:12;11.55;;;10.68;;
21334;SDS011;10826;52.536;13.432;2022-08-19T11:48:41;12.13;;;11.00;;
21334;SDS011;10826;52.536;13.432;2022-08-19T11:51:09;11.75;;;10.13;;
21334;SDS011;10826;52.536;13.432;2022-08-19T11:53:41;11.57;;;10.48;;
21334;SDS011;10826;52.536;13.432;2022-08-19T11:56:08;11.63;;;10.20;;
21334;SDS011;10826;52.536;13.432;2022-08-19T11:58:34;11.18;;;10.15;;
21334;SDS011;10826;52.536;13.432;2022-08-19T12:01:01;10.77;;;9.77;;
21334;SDS011;10826;52.536;13.432;2022-08-19T12:03:31;11.20;;;10.18;;
21334;SDS011;10826;52.536;13.432;2022-08-19T12:05:57;11.60;;;10.48;;
21334;SDS011;10826;52.536;13.432;2022-08-19T12:08:23;10.48;;;9.57;;
21334;SDS011;10826;52.536;13.432;2022-08-19T12:10:48;10.85;;;9.70;;
21334;SDS011;10826;52.536;13.432;2022-08-19T12:13:14;10.30;;;9.60;;
21334;SDS011;10826;52.536;13.432;2022-08-19T12:15:40;11.20;;;10.25;;
21334;SDS011;10826;52.536;13.432;2022-08-19T12:18:07;9.82;;;9.02;;
21334;SDS011;10826;52.536;13.432;2022-08-19T12:20:37;11.10;;;9.95;;
21334;SDS011;10826;52.536;13.432;2022-08-19T12:23:06;9.43;;;8.73;;
21334;SDS011;10826;52.536;13.432;2022-08-19T12:25:35;10.45;;;9.65;;
21334;SDS011;10826;52.536;13.432;2022-08-19T12:28:02;9.93;;;9.13;;
21334;SDS011;10826;52.536;13.432;2022-08-19T12:30:28;9.38;;;8.57;;
21334;SDS011;10826;52.536;13.432;2022-08-19T12:32:54;9.05;;;8.13;;
21334;SDS011;10826;52.536;13.432;2022-08-19T12:35:20;9.07;;;8.27;;
21334;SDS011;10826;52.536;13.432;2022-08-19T12:37:47;8.65;;;8.05;;
21334;SDS011;10826;52.536;13.432;2022-08-19T12:40:14;8.18;;;7.60;;
21334;SDS011;10826;52.536;13.432;2022-08-19T12:42:42;8.68;;;8.07;;
21334;SDS011;10826;52.536;13.432;2022-08-19T12:45:09;8.07;;;7.50;;
21334;SDS011;10826;52.536;13.432;2022-08-19T12:47:37;8.50;;;7.90;;
21334;SDS011;10826;52.536;13.432;2022-08-19T12:50:05;8.50;;;7.95;;
21334;SDS011;10826;52.536;13.432;2022-08-19T12:52:33;10.07;;;7.88;;
21334;SDS011;10826;52.536;13.432;2022-08-19T12:55:07;8.25;;;7.68;;
21334;SDS011;10826;52.536;13.432;2022-08-19T12:57:34;8.68;;;8.07;;
21334;SDS011;10826;52.536;13.432;2022-08-19T13:00:05;10.73;;;8.85;;
21334;SDS011;10826;52.536;13.432;2022-08-19T13:02:37;10.25;;;9.32;;
21334;SDS011;10826;52.536;13.432;2022-08-19T13:05:06;9.52;;;8.63;;
21334;SDS011;10826;52.536;13.432;2022-08-19T13:07:36;9.98;;;9.10;;
21334;SDS011;10826;52.536;13.432;2022-08-19T13:10:05;9.48;;;8.77;;
21334;SDS011;10826;52.536;13.432;2022-08-19T13:12:34;10.18;;;9.32;;
21334;SDS011;10826;52.536;13.432;2022-08-19T13:15:00;9.82;;;9.02;;
21334;SDS011;10826;52.536;13.432;2022-08-19T13:17:26;9.80;;;9.10;;
21334;SDS011;10826;52.536;13.432;2022-08-19T13:19:52;10.15;;;9.32;;
21334;SDS011;10826;52.536;13.432;2022-08-19T13:22:18;10.50;;;9.70;;
21334;SDS011;10826;52.536;13.432;2022-08-19T13:24:44;10.27;;;9.43;;
21334;SDS011;10826;52.536;13.432;2022-08-19T13:27:11;9.55;;;8.77;;
21334;SDS011;10826;52.536;13.432;2022-08-19T13:29:36;10.18;;;9.38;;
21334;SDS011;10826;52.536;13.432;2022-08-19T13:32:23;10.05;;;9.35;;
21334;SDS011;10826;52.536;13.432;2022-08-19T13:35:08;10.55;;;9.77;;
21334;SDS011;10826;52.536;13.432;2022-08-19T13:37:34;10.52;;;9.60;;
21334;SDS011;10826;52.536;13.432;2022-08-19T13:40:10;11.68;;;10.68;;
21334;SDS011;10826;52.536;13.432;2022-08-19T13:42:44;10.85;;;9.95;;
21334;SDS011;10826;52.536;13.432;2022-08-19T13:45:13;10.68;;;9.75;;
21334;SDS011;10826;52.536;13.432;2022-08-19T13:47:45;12.65;;;11.45;;
21334;SDS011;10826;52.536;13.432;2022-08-19T13:50:17;10.20;;;9.40;;
21334;SDS011;10826;52.536;13.432;2022-08-19T13:52:47;10.45;;;9.48;;
21334;SDS011;10826;52.536;13.432;2022-08-19T13:55:14;10.52;;;9.68;;
21334;SDS011;10826;52.536;13.432;2022-08-19T13:57:41;11.20;;;10.02;;
21334;SDS011;10826;52.536;13.432;2022-08-19T14:00:14;10.65;;;9.75;;
21334;SDS011;10826;52.536;13.432;2022-08-19T14:02:43;10.10;;;9.02;;
21334;SDS011;10826;52.536;13.432;2022-08-19T14:05:13;10.00;;;9.23;;
21334;SDS011;10826;52.536;13.432;2022-08-19T14:07:41;11.07;;;10.13;;
21334;SDS011;10826;52.536;13.432;2022-08-19T14:10:07;10.68;;;9.77;;
21334;SDS011;10826;52.536;13.432;2022-08-19T14:12:36;10.30;;;9.50;;
21334;SDS011;10826;52.536;13.432;2022-08-19T14:15:03;10.55;;;9.85;;
21334;SDS011;10826;52.536;13.432;2022-08-19T14:17:33;10.85;;;9.85;;
21334;SDS011;10826;52.536;13.432;2022-08-19T14:20:00;10.80;;;9.75;;
21334;SDS011;10826;52.536;13.432;2022-08-19T14:22:33;10.38;;;9.50;;
21334;SDS011;10826;52.536;13.432;2022-08-19T14:25:01;10.60;;;9.68;;
21334;SDS011;10826;52.536;13.432;2022-08-19T14:27:30;9.65;;;8.95;;
21334;SDS011;10826;52.536;13.432;2022-08-19T14:29:59;10.27;;;9.40;;
21334;SDS011;10826;52.536;13.432;2022-08-19T14:32:24;9.68;;;8.95;;
21334;SDS011;10826;52.536;13.432;2022-08-19T14:34:51;10.88;;;9.30;;
21334;SDS011;10826;52.536;13.432;2022-08-19T14:37:18;9.75;;;9.05;;
21334;SDS011;10826;52.536;13.432;2022-08-19T14:39:44;10.10;;;9.30;;
21334;SDS011;10826;52.536;13.432;2022-08-19T14:42:10;10.38;;;9.35;;